Time;durP1;ratioP1;P1;durP2;ratioP2;P2;SDS_P1;SDS_P2;PMS_P1;PMS_P2;Temp;Humidity;BMP_temperature;BMP_pressure;BME280_temperature;BME280_humidity;BME280_pressure;Samples;Min_cycle;Max_cycle;Signal;HPM_P1;HPM_P2
2023/05/06 00:00:40;;;;;;;;;;;;;;;6.86;33.99;97506.56;6294598;28;19924;-74
2023/05/06 00:03:43;;;;;;;;;;;;;;;6.78;34.16;97506.03;6293309;28;20339;-75
2023/05/06 00:06:47;;;;;;;;;;;;;;;6.72;33.84;97507.13;6294585;28;19920;-73
2023/05/06 00:09:51;;;;;;;;;;;;;;;6.77;34.43;97503.50;6294354;28;19921;-73
2023/05/06 00:12:53;;;;;;;;;;;;;;;6.77;34.31;97503.50;6293649;28;20014;-74
2023/05/06 00:15:54;;;;;;;;;;;;;;;6.70;34.88;97498.47;6293561;28;20019;-74
2023/05/06 00:18:57;;;;;;;;;;;;;;;6.58;35.51;97498.13;6294394;28;19921;-74
2023/05/06 00:22:01;;;;;;;;;;;;;;;6.47;34.92;97499.38;6294358;28;19916;-74
2023/05/06 00:25:02;;;;;;;;;;;;;;;6.37;34.55;97497.16;6292725;28;19920;-74
2023/05/06 00:28:04;;;;;;;;;;;;;;;6.27;34.52;97502.75;6293659;28;20001;-73
2023/05/06 00:31:08;;;;;;;;;;;;;;;6.21;35.05;97495.13;6294479;28;20015;-73
2023/05/06 00:34:14;;;;;;;;;;;;;;;6.19;34.91;97502.16;6294317;28;19920;-74
2023/05/06 00:37:15;;;;;;;;;;;;;;;6.16;35.22;97496.22;6293436;28;19920;-75
2023/05/06 00:40:21;;;;;;;;;;;;;;;6.11;34.81;97491.16;6294120;28;20006;-74
2023/05/06 00:43:24;;;;;;;;;;;;;;;6.08;34.88;97499.94;6293514;28;19927;-74
2023/05/06 00:46:26;;;;;;;;;;;;;;;6.09;34.87;97503.44;6294241;28;19920;-74
2023/05/06 00:49:28;;;;;;;;;;;;;;;6.08;34.86;97493.88;6297736;28;19928;-74
2023/05/06 00:52:31;;;;;;;;;;;;;;;6.09;35.13;97498.22;6298389;28;19920;-74
2023/05/06 00:55:33;;;;;;;;;;;;;;;6.08;34.88;97493.88;6298033;28;19927;-73
2023/05/06 00:58:35;;;;;;;;;;;;;;;6.08;34.78;97494.72;6297580;28;19943;-75
2023/05/06 01:01:36;;;;;;;;;;;;;;;6.10;34.91;97497.28;6280049;28;20378;-74
2023/05/06 01:04:40;;;;;;;;;;;;;;;6.14;35.13;97496.25;6297615;28;20013;-74
2023/05/06 01:07:51;;;;;;;;;;;;;;;6.18;35.07;97495.25;6297917;28;19920;-74
2023/05/06 01:10:59;;;;;;;;;;;;;;;6.22;35.05;97494.22;6297864;28;19920;-74
2023/05/06 01:14:21;;;;;;;;;;;;;;;6.26;35.23;97498.44;6297868;28;19924;-74
2023/05/06 01:17:25;;;;;;;;;;;;;;;6.30;34.48;97497.41;6297012;28;19920;-74
2023/05/06 01:20:29;;;;;;;;;;;;;;;6.40;34.62;97494.47;6297479;28;20373;-74
2023/05/06 01:23:51;;;;;;;;;;;;;;;6.58;34.39;97504.19;6297613;28;19959;-74
2023/05/06 01:26:55;;;;;;;;;;;;;;;6.67;34.66;97498.59;6297613;28;19920;-75
2023/05/06 01:30:01;;;;;;;;;;;;;;;6.71;35.47;97510.66;6280162;28;20436;-74
2023/05/06 01:33:02;;;;;;;;;;;;;;;6.74;34.86;97513.16;6296710;28;20062;-74
2023/05/06 01:36:07;;;;;;;;;;;;;;;6.79;34.90;97514.72;6296478;28;20445;-73
2023/05/06 01:39:17;;;;;;;;;;;;;;;6.83;35.72;97518.94;6297465;28;19920;-74
2023/05/06 01:42:23;;;;;;;;;;;;;;;6.92;35.13;97518.56;6297217;28;19966;-74
2023/05/06 01:45:30;;;;;;;;;;;;;;;7.00;34.45;97516.50;6297307;28;20301;-73
2023/05/06 01:48:35;;;;;;;;;;;;;;;7.17;35.07;97514.03;6297246;28;20014;-73
2023/05/06 01:51:36;;;;;;;;;;;;;;;7.32;34.73;97514.31;6297148;28;20038;-74
2023/05/06 01:54:39;;;;;;;;;;;;;;;7.46;34.97;97508.50;6297569;28;19927;-74
2023/05/06 01:57:43;;;;;;;;;;;;;;;7.58;34.21;97502.75;6296873;28;19927;-73
2023/05/06 02:00:47;;;;;;;;;;;;;;;7.73;34.61;97506.47;6296937;28;19927;-75
2023/05/06 02:03:51;;;;;;;;;;;;;;;7.90;33.78;97509.22;6295873;28;20037;-74
2023/05/06 02:06:52;;;;;;;;;;;;;;;8.01;34.60;97504.34;6295859;28;19920;-74
2023/05/06 02:09:53;;;;;;;;;;;;;;;8.10;34.32;97500.47;6295814;28;20302;-74
2023/05/06 02:12:56;;;;;;;;;;;;;;;8.20;34.38;97501.75;6295444;28;19927;-74
2023/05/06 02:15:58;;;;;;;;;;;;;;;8.54;35.11;97500.22;6295866;28;19927;-74
2023/05/06 02:18:59;;;;;;;;;;;;;;;8.54;34.69;97494.97;6296533;28;19920;-75
2023/05/06 02:22:03;;;;;;;;;;;;;;;8.62;34.42;97486.75;6278847;28;19920;-74
2023/05/06 02:25:04;;;;;;;;;;;;;;;8.86;35.14;97501.34;6295598;28;19928;-75
2023/05/06 02:28:07;;;;;;;;;;;;;;;8.90;35.41;97495.00;6295106;28;19928;-74
2023/05/06 02:31:13;;;;;;;;;;;;;;;9.03;35.59;97495.28;6295025;28;19924;-75
2023/05/06 02:34:19;;;;;;;;;;;;;;;9.05;35.20;97505.69;6296070;28;19920;-75
2023/05/06 02:37:27;;;;;;;;;;;;;;;9.24;35.15;97503.03;6296120;28;19916;-74
2023/05/06 02:40:31;;;;;;;;;;;;;;;9.43;35.20;97502.03;6295903;28;20288;-74
2023/05/06 02:43:36;;;;;;;;;;;;;;;9.52;35.32;97505.13;6295771;28;19916;-72
2023/05/06 02:46:40;;;;;;;;;;;;;;;9.64;35.13;97497.47;6295802;28;19920;-74
2023/05/06 02:49:41;;;;;;;;;;;;;;;9.65;35.19;97506.19;6295213;28;19916;-74
2023/05/06 02:52:42;;;;;;;;;;;;;;;9.72;34.57;97502.31;6295574;28;19951;-74
2023/05/06 02:55:43;;;;;;;;;;;;;;;9.84;34.29;97501.69;6294997;28;19920;-74
2023/05/06 02:58:44;;;;;;;;;;;;;;;9.99;34.40;97488.66;6294816;28;19928;-75
2023/05/06 03:01:50;;;;;;;;;;;;;;;10.16;34.13;97491.25;6295401;28;19920;-74
2023/05/06 03:04:53;;;;;;;;;;;;;;;10.29;34.09;97494.97;6294371;28;19920;-74
2023/05/06 03:07:59;;;;;;;;;;;;;;;10.38;34.04;97496.25;6295504;28;19920;-74
2023/05/06 03:11:00;;;;;;;;;;;;;;;10.51;33.70;97491.19;6293123;28;19931;-74
2023/05/06 03:14:01;;;;;;;;;;;;;;;10.70;33.84;97491.88;6293851;28;19920;-73
2023/05/06 03:17:06;;;;;;;;;;;;;;;10.88;33.77;97492.63;6293955;28;19927;-74
2023/05/06 03:20:09;;;;;;;;;;;;;;;11.00;33.39;97488.44;6277817;28;19920;-75
2023/05/06 03:23:13;;;;;;;;;;;;;;;11.12;33.21;97487.72;6294979;28;19920;-73
2023/05/06 03:26:16;;;;;;;;;;;;;;;11.28;33.58;97486.88;6295066;28;19920;-75
2023/05/06 03:29:19;;;;;;;;;;;;;;;11.63;33.27;97485.66;6294067;28;20412;-75
2023/05/06 03:32:22;;;;;;;;;;;;;;;11.65;33.15;97475.00;6293844;28;19920;-74
2023/05/06 03:35:25;;;;;;;;;;;;;;;11.75;32.97;97477.94;6294546;28;19920;-75
2023/05/06 03:38:29;;;;;;;;;;;;;;;11.88;32.50;97481.56;6294507;28;19931;-75
2023/05/06 03:41:32;;;;;;;;;;;;;;;12.10;32.46;97481.97;6294807;28;19928;-74
2023/05/06 03:44:34;;;;;;;;;;;;;;;12.30;32.53;97474.59;6294858;28;20484;-73
2023/05/06 03:47:35;;;;;;;;;;;;;;;12.61;32.13;97475.31;6294707;28;20019;-74
2023/05/06 03:50:37;;;;;;;;;;;;;;;12.80;31.87;97481.97;6294804;28;19916;-75
2023/05/06 03:53:38;;;;;;;;;;;;;;;12.88;31.64;97470.94;6293868;28;19920;-74
2023/05/06 03:56:39;;;;;;;;;;;;;;;13.09;31.28;97459.91;6293660;28;19927;-75
2023/05/06 03:59:42;;;;;;;;;;;;;;;13.32;30.92;97466.34;6294658;28;19920;-74
2023/05/06 04:02:47;;;;;;;;;;;;;;;13.87;28.59;97468.75;6295001;28;19920;-74
2023/05/06 04:05:49;;;;;;;;;;;;;;;14.44;25.99;97461.31;6293635;28;20358;-74
2023/05/06 04:08:53;;;;;;;;;;;;;;;14.62;25.96;97465.31;6277162;28;20511;-74
2023/05/06 04:11:56;;;;;;;;;;;;;;;14.73;25.96;97452.13;6294190;28;19920;-75
2023/05/06 04:15:00;;;;;;;;;;;;;;;15.03;25.48;97458.78;6293706;28;19971;-75
2023/05/06 04:18:05;;;;;;;;;;;;;;;15.23;25.13;97460.84;6294557;28;20329;-75
2023/05/06 04:21:06;;;;;;;;;;;;;;;15.51;24.95;97458.75;6296474;28;19923;-74
2023/05/06 04:24:09;;;;;;;;;;;;;;;15.90;24.22;97456.69;6298293;28;19920;-74
2023/05/06 04:27:12;;;;;;;;;;;;;;;15.86;24.53;97452.63;6298808;28;20004;-74
2023/05/06 04:30:13;;;;;;;;;;;;;;;16.09;23.90;97464.94;6298087;28;19920;-74
2023/05/06 04:33:14;;;;;;;;;;;;;;;16.36;23.40;97455.75;6280119;28;19920;-76
2023/05/06 04:36:16;;;;;;;;;;;;;;;16.43;23.77;97451.66;6297818;28;19920;-75
2023/05/06 04:39:19;;;;;;;;;;;;;;;16.89;23.22;97455.13;6297624;28;19927;-75
2023/05/06 04:42:20;;;;;;;;;;;;;;;18.10;21.93;97455.69;6297847;28;19921;-74
2023/05/06 04:45:23;;;;;;;;;;;;;;;21.24;19.32;97449.84;6297551;28;19926;-74
2023/05/06 04:48:26;;;;;;;;;;;;;;;24.37;16.98;97454.44;6298381;28;19920;-75
2023/05/06 04:51:32;;;;;;;;;;;;;;;27.39;15.32;97464.63;6298261;28;19927;-74
2023/05/06 04:54:36;;;;;;;;;;;;;;;29.15;13.50;97459.31;6298506;28;19965;-74
2023/05/06 04:57:37;;;;;;;;;;;;;;;30.45;12.40;97454.47;6297340;28;19926;-74
2023/05/06 05:00:42;;;;;;;;;;;;;;;32.17;11.97;97447.38;6298030;28;20393;-74
2023/05/06 05:03:46;;;;;;;;;;;;;;;33.99;11.01;97450.19;6298221;28;20390;-74
2023/05/06 05:06:50;;;;;;;;;;;;;;;35.54;8.78;97444.31;6297293;28;20031;-75
2023/05/06 05:09:51;;;;;;;;;;;;;;;35.54;9.10;97445.16;6297962;28;19932;-74
2023/05/06 05:12:54;;;;;;;;;;;;;;;36.23;8.84;97440.63;6297892;28;19920;-74
2023/05/06 05:16:00;;;;;;;;;;;;;;;36.83;7.95;97440.72;6297754;28;19920;-73
2023/05/06 05:19:05;;;;;;;;;;;;;;;37.41;6.98;97441.13;6297777;28;20030;-74
2023/05/06 05:22:06;;;;;;;;;;;;;;;37.33;7.56;97430.63;6297233;28;19921;-74
2023/05/06 05:25:09;;;;;;;;;;;;;;;37.37;7.42;97431.78;6297601;28;19920;-74
2023/05/06 05:28:10;;;;;;;;;;;;;;;37.14;7.60;97418.31;6297798;28;20279;-74
2023/05/06 05:31:13;;;;;;;;;;;;;;;37.35;7.28;97425.72;6297537;28;19920;-74
2023/05/06 05:34:14;;;;;;;;;;;;;;;36.00;7.27;97420.50;6296993;28;19943;-74
2023/05/06 05:37:16;;;;;;;;;;;;;;;35.48;7.55;97434.38;6296884;28;19927;-73
2023/05/06 05:40:19;;;;;;;;;;;;;;;34.68;8.16;97416.88;6297368;28;19920;-73
2023/05/06 05:43:30;;;;;;;;;;;;;;;35.98;7.85;97422.66;6297458;28;19920;-73
2023/05/06 05:46:31;;;;;;;;;;;;;;;35.94;7.71;97426.97;6296569;28;19958;-73
2023/05/06 05:49:37;;;;;;;;;;;;;;;36.67;7.03;97416.09;6296974;28;19920;-74
2023/05/06 05:52:38;;;;;;;;;;;;;;;37.05;7.13;97421.50;6278636;28;19924;-74
2023/05/06 05:55:39;;;;;;;;;;;;;;;37.63;6.97;97410.09;6296903;28;19920;-74
2023/05/06 05:58:48;;;;;;;;;;;;;;;39.15;6.09;97425.97;6296641;28;19962;-73
2023/05/06 06:01:53;;;;;;;;;;;;;;;38.53;6.55;97413.00;6296917;28;19920;-74
2023/05/06 06:04:55;;;;;;;;;;;;;;;38.55;6.54;97410.84;6295497;28;19920;-74
2023/05/06 06:07:59;;;;;;;;;;;;;;;37.95;6.30;97430.19;6296431;28;19924;-74
2023/05/06 06:11:04;;;;;;;;;;;;;;;37.53;6.29;97394.34;6278515;28;19931;-74
2023/05/06 06:14:09;;;;;;;;;;;;;;;37.29;6.94;97391.88;6295295;28;19920;-74
2023/05/06 06:17:10;;;;;;;;;;;;;;;38.12;6.10;97379.75;6295052;28;19927;-74
2023/05/06 06:20:11;;;;;;;;;;;;;;;39.12;5.74;97373.41;6295539;28;19920;-74
2023/05/06 06:23:15;;;;;;;;;;;;;;;38.81;5.77;97376.88;6296110;28;19971;-74
2023/05/06 06:26:17;;;;;;;;;;;;;;;39.12;5.44;97379.72;6295420;28;19928;-73
2023/05/06 06:29:23;;;;;;;;;;;;;;;39.59;5.25;97364.16;6296147;28;19920;-74
2023/05/06 06:32:25;;;;;;;;;;;;;;;40.39;4.68;97367.16;6295702;28;19920;-74
2023/05/06 06:35:29;;;;;;;;;;;;;;;39.48;5.16;97377.09;6295801;28;19924;-73
2023/05/06 06:38:30;;;;;;;;;;;;;;;39.40;5.12;97369.38;6294487;28;19916;-74
2023/05/06 06:41:35;;;;;;;;;;;;;;;39.65;5.02;97391.44;6295994;28;20386;-74
2023/05/06 06:44:39;;;;;;;;;;;;;;;38.17;5.44;97364.13;6294761;28;19920;-74
2023/05/06 06:47:42;;;;;;;;;;;;;;;39.17;5.30;97351.41;6295700;28;20389;-74
2023/05/06 06:50:49;;;;;;;;;;;;;;;39.52;5.28;97356.16;6295335;28;19920;-73
2023/05/06 06:53:52;;;;;;;;;;;;;;;40.15;5.03;97351.22;6295259;28;20385;-73
2023/05/06 06:56:56;;;;;;;;;;;;;;;40.40;4.89;97341.25;6277342;28;19920;-74
2023/05/06 06:59:59;;;;;;;;;;;;;;;40.48;4.83;97376.50;6295102;28;20349;-74
2023/05/06 07:03:03;;;;;;;;;;;;;;;39.45;5.30;97328.09;6294476;28;19920;-73
2023/05/06 07:06:07;;;;;;;;;;;;;;;39.41;5.41;97313.22;6294661;28;20301;-74
2023/05/06 07:09:08;;;;;;;;;;;;;;;40.05;4.93;97331.91;6295002;28;19927;-74
2023/05/06 07:12:09;;;;;;;;;;;;;;;39.33;4.97;97330.28;6294738;28;19920;-73
2023/05/06 07:15:11;;;;;;;;;;;;;;;38.52;5.37;97312.38;6294379;28;19920;-73
2023/05/06 07:18:15;;;;;;;;;;;;;;;38.13;5.47;97316.31;6277464;28;19924;-73
2023/05/06 07:21:20;;;;;;;;;;;;;;;37.77;5.65;97320.69;6294466;28;19990;-74
2023/05/06 07:24:24;;;;;;;;;;;;;;;38.33;5.53;97310.09;6277428;28;20019;-74
2023/05/06 07:27:29;;;;;;;;;;;;;;;38.51;5.62;97283.25;6294933;28;19920;-74
2023/05/06 07:30:30;;;;;;;;;;;;;;;38.94;5.46;97281.19;6294285;28;19916;-73
2023/05/06 07:33:31;;;;;;;;;;;;;;;39.15;5.27;97271.03;6293860;28;19931;-74
2023/05/06 07:36:39;;;;;;;;;;;;;;;39.61;4.92;97307.72;6294620;28;19920;-73
2023/05/06 07:39:43;;;;;;;;;;;;;;;39.03;5.22;97279.56;6293934;28;20003;-74
2023/05/06 07:42:48;;;;;;;;;;;;;;;39.22;4.83;97266.09;6294690;28;19920;-73
2023/05/06 07:46:00;;;;;;;;;;;;;;;39.69;5.14;97270.50;6295149;28;19951;-73
2023/05/06 07:49:04;;;;;;;;;;;;;;;39.15;5.30;97255.34;6294642;28;19920;-74
2023/05/06 07:52:05;;;;;;;;;;;;;;;40.33;4.81;97269.03;6293120;28;19998;-74
2023/05/06 07:55:09;;;;;;;;;;;;;;;39.46;5.06;97272.75;6295375;28;20415;-74
2023/05/06 07:58:16;;;;;;;;;;;;;;;38.95;5.51;97244.31;6299512;28;19920;-74
2023/05/06 08:01:17;;;;;;;;;;;;;;;38.58;5.70;97251.63;6298325;28;20409;-74
2023/05/06 08:04:22;;;;;;;;;;;;;;;38.55;5.72;97234.84;6299318;28;19920;-74
2023/05/06 08:07:23;;;;;;;;;;;;;;;39.48;5.08;97233.91;6298847;28;19920;-74
2023/05/06 08:10:27;;;;;;;;;;;;;;;39.52;5.23;97232.25;6298322;28;19916;-73
2023/05/06 08:13:32;;;;;;;;;;;;;;;40.08;4.72;97234.91;6298808;28;19920;-74
2023/05/06 08:16:36;;;;;;;;;;;;;;;39.87;4.85;97244.34;6298718;28;20267;-74
2023/05/06 08:19:39;;;;;;;;;;;;;;;39.39;4.83;97219.06;6298129;28;20066;-74
2023/05/06 08:22:42;;;;;;;;;;;;;;;39.55;4.86;97219.84;6298447;28;19920;-73
2023/05/06 08:25:43;;;;;;;;;;;;;;;39.82;5.00;97230.59;6298385;28;20323;-73
2023/05/06 08:28:49;;;;;;;;;;;;;;;39.14;4.99;97209.66;6299025;28;20023;-73
2023/05/06 08:31:56;;;;;;;;;;;;;;;39.51;4.94;97208.56;6298150;28;20015;-73
2023/05/06 08:35:00;;;;;;;;;;;;;;;40.10;4.78;97205.13;6298755;28;19920;-73
2023/05/06 08:38:01;;;;;;;;;;;;;;;39.24;5.14;97200.59;6297816;28;20405;-74
2023/05/06 08:41:08;;;;;;;;;;;;;;;39.30;5.26;97202.25;6298471;28;19942;-74
2023/05/06 08:44:17;;;;;;;;;;;;;;;39.52;4.69;97199.19;6298297;28;19993;-73
2023/05/06 08:47:21;;;;;;;;;;;;;;;38.30;5.28;97175.91;6297824;28;19927;-73
2023/05/06 08:50:24;;;;;;;;;;;;;;;37.94;5.23;97184.03;6298202;28;19921;-73
2023/05/06 08:53:28;;;;;;;;;;;;;;;37.80;5.28;97191.09;6298324;28;19920;-73
2023/05/06 08:56:32;;;;;;;;;;;;;;;38.01;5.42;97185.72;6297734;28;20308;-74
2023/05/06 08:59:34;;;;;;;;;;;;;;;37.66;5.81;97181.69;6297329;28;19920;-73
2023/05/06 09:02:37;;;;;;;;;;;;;;;36.97;6.54;97194.31;6297585;28;19920;-74
2023/05/06 09:05:41;;;;;;;;;;;;;;;36.81;5.96;97189.75;6296651;28;20464;-76
2023/05/06 09:08:45;;;;;;;;;;;;;;;36.52;6.31;97187.25;6296929;28;19920;-73
2023/05/06 09:11:56;;;;;;;;;;;;;;;36.13;6.48;97187.38;6297622;28;19928;-74
2023/05/06 09:15:01;;;;;;;;;;;;;;;36.34;6.79;97162.94;6297627;28;20007;-73
2023/05/06 09:18:05;;;;;;;;;;;;;;;35.94;6.81;97158.59;6297317;28;19942;-74
2023/05/06 09:21:08;;;;;;;;;;;;;;;36.68;6.48;97168.25;6297123;28;19920;-74
2023/05/06 09:24:13;;;;;;;;;;;;;;;37.28;6.14;97169.84;6280004;28;19961;-74
2023/05/06 09:27:18;;;;;;;;;;;;;;;36.99;6.20;97164.66;6297612;28;20332;-74
2023/05/06 09:30:25;;;;;;;;;;;;;;;35.99;6.47;97166.88;6297680;28;19916;-75
2023/05/06 09:33:35;;;;;;;;;;;;;;;35.84;6.72;97153.00;6297496;28;19927;-74
2023/05/06 09:36:37;;;;;;;;;;;;;;;36.02;6.65;97155.44;6278785;28;19916;-73
2023/05/06 09:39:38;;;;;;;;;;;;;;;35.93;6.61;97170.66;6279209;28;20036;-74
2023/05/06 09:42:42;;;;;;;;;;;;;;;35.95;6.75;97154.78;6297131;28;19943;-75
2023/05/06 09:45:45;;;;;;;;;;;;;;;35.97;6.76;97155.34;6296794;28;19983;-73
2023/05/06 09:48:52;;;;;;;;;;;;;;;35.47;6.67;97138.00;6296913;28;20374;-73
2023/05/06 09:51:54;;;;;;;;;;;;;;;34.61;7.15;97129.22;6279114;28;19920;-72
2023/05/06 09:54:55;;;;;;;;;;;;;;;34.39;7.28;97121.69;6296238;28;19916;-73
2023/05/06 09:57:57;;;;;;;;;;;;;;;34.05;7.60;97147.25;6295629;28;19920;-74
2023/05/06 10:01:00;;;;;;;;;;;;;;;33.52;7.58;97147.25;6295779;28;20037;-74
2023/05/06 10:04:05;;;;;;;;;;;;;;;33.01;8.11;97137.88;6295403;28;19927;-74
2023/05/06 10:07:07;;;;;;;;;;;;;;;33.42;7.47;97127.88;6296242;28;20416;-74
2023/05/06 10:10:13;;;;;;;;;;;;;;;33.40;7.72;97113.66;6295439;28;19920;-74
2023/05/06 10:13:16;;;;;;;;;;;;;;;33.08;7.96;97122.22;6295666;28;19921;-74
2023/05/06 10:16:23;;;;;;;;;;;;;;;32.90;7.88;97130.47;6296331;28;19926;-75
2023/05/06 10:19:27;;;;;;;;;;;;;;;33.06;7.91;97146.16;6295828;28;20398;-74
2023/05/06 10:22:41;;;;;;;;;;;;;;;32.64;8.23;97138.03;6295230;28;19921;-74
2023/05/06 10:25:46;;;;;;;;;;;;;;;32.60;8.50;97131.38;6296209;28;19920;-74
2023/05/06 10:28:51;;;;;;;;;;;;;;;32.42;8.45;97128.69;6295791;28;20025;-73
2023/05/06 10:31:58;;;;;;;;;;;;;;;32.58;8.43;97125.34;6295472;28;20014;-73
2023/05/06 10:35:07;;;;;;;;;;;;;;;32.77;8.45;97130.69;6295046;28;19920;-75
2023/05/06 10:38:16;;;;;;;;;;;;;;;32.67;8.79;97120.38;6295847;28;19986;-74
2023/05/06 10:41:20;;;;;;;;;;;;;;;32.51;8.48;97131.94;6295230;28;19921;-74
2023/05/06 10:44:47;;;;;;;;;;;;;;;31.97;8.74;97126.41;6294631;28;20006;-74
2023/05/06 10:47:53;;;;;;;;;;;;;;;30.85;9.39;97105.56;6294554;28;19982;-73
2023/05/06 10:51:12;;;;;;;;;;;;;;;30.70;9.53;97105.06;6295090;28;19916;-74
2023/05/06 10:54:19;;;;;;;;;;;;;;;30.59;10.04;97109.31;6294845;28;19920;-74
2023/05/06 10:57:25;;;;;;;;;;;;;;;30.26;10.21;97125.00;6294876;28;19916;-74
2023/05/06 11:00:32;;;;;;;;;;;;;;;29.96;10.11;97112.84;6295508;28;19920;-74
2023/05/06 11:03:36;;;;;;;;;;;;;;;29.77;10.35;97097.47;6295071;28;19920;-74
2023/05/06 11:06:45;;;;;;;;;;;;;;;29.86;10.17;97092.63;6294428;28;19920;-75
2023/05/06 11:09:52;;;;;;;;;;;;;;;29.76;10.54;97087.69;6295546;28;19924;-73
2023/05/06 11:12:54;;;;;;;;;;;;;;;29.54;10.70;97098.78;6294240;28;19920;-74
2023/05/06 11:15:57;;;;;;;;;;;;;;;28.53;11.09;97088.31;6294625;28;19920;-74
2023/05/06 11:18:58;;;;;;;;;;;;;;;28.02;11.51;97102.34;6294688;28;19924;-74
2023/05/06 11:22:00;;;;;;;;;;;;;;;28.45;11.35;97083.13;6294211;28;19927;-74
2023/05/06 11:25:05;;;;;;;;;;;;;;;28.73;11.20;97109.97;6294821;28;19920;-73
2023/05/06 11:28:10;;;;;;;;;;;;;;;28.57;11.39;97084.16;6294059;28;19952;-73
2023/05/06 11:31:14;;;;;;;;;;;;;;;28.61;11.28;97063.72;6294433;28;19920;-74
2023/05/06 11:34:20;;;;;;;;;;;;;;;28.72;11.07;97064.16;6294892;28;19924;-75
2023/05/06 11:37:27;;;;;;;;;;;;;;;28.64;11.34;97093.09;6293531;28;19920;-74
2023/05/06 11:40:31;;;;;;;;;;;;;;;28.14;11.74;97070.97;6294686;28;20292;-73
2023/05/06 11:43:32;;;;;;;;;;;;;;;28.12;11.77;97092.00;6293809;28;19920;-74
2023/05/06 11:46:34;;;;;;;;;;;;;;;27.60;12.00;97061.03;6293811;28;20298;-73
2023/05/06 11:49:36;;;;;;;;;;;;;;;27.35;12.34;97092.31;6294503;28;20019;-74
2023/05/06 11:52:38;;;;;;;;;;;;;;;26.91;12.41;97066.47;6294123;28;19924;-74
2023/05/06 11:55:43;;;;;;;;;;;;;;;26.30;12.82;97057.06;6294803;28;20344;-73
2023/05/06 11:58:45;;;;;;;;;;;;;;;26.09;12.91;97065.16;6293449;28;19920;-73
2023/05/06 12:01:48;;;;;;;;;;;;;;;25.80;13.27;97053.44;6294420;28;19924;-75
2023/05/06 12:04:52;;;;;;;;;;;;;;;25.83;13.20;97046.84;6294604;28;19920;-74
2023/05/06 12:07:55;;;;;;;;;;;;;;;25.92;12.94;97045.69;6293871;28;20005;-74
2023/05/06 12:10:58;;;;;;;;;;;;;;;25.70;13.08;97053.75;6293733;28;19927;-73
2023/05/06 12:14:03;;;;;;;;;;;;;;;25.49;13.75;97051.84;6294354;28;20401;-75
2023/05/06 12:17:04;;;;;;;;;;;;;;;25.59;13.52;97042.59;6292985;28;19920;-75
2023/05/06 12:20:05;;;;;;;;;;;;;;;26.03;13.56;97082.94;6293126;28;19920;-74
2023/05/06 12:23:09;;;;;;;;;;;;;;;25.89;13.42;97046.09;6293878;28;20325;-75
2023/05/06 12:26:14;;;;;;;;;;;;;;;25.69;13.52;97041.28;6294223;28;20297;-74
2023/05/06 12:29:19;;;;;;;;;;;;;;;26.16;13.20;97042.63;6293455;28;19920;-74
2023/05/06 12:32:23;;;;;;;;;;;;;;;26.47;13.22;97035.16;6294154;28;20352;-74
2023/05/06 12:35:29;;;;;;;;;;;;;;;26.88;13.00;97044.22;6293920;28;19920;-74
2023/05/06 12:38:33;;;;;;;;;;;;;;;26.77;12.90;97016.94;6293097;28;20301;-74
2023/05/06 12:41:39;;;;;;;;;;;;;;;26.54;13.04;97011.81;6295168;28;19920;-74
2023/05/06 12:44:45;;;;;;;;;;;;;;;26.39;13.23;97014.59;6298297;28;19920;-74
2023/05/06 12:47:57;;;;;;;;;;;;;;;26.31;13.58;96996.69;6298211;28;20027;-74
2023/05/06 12:50:58;;;;;;;;;;;;;;;26.21;13.65;96993.47;6297299;28;19928;-74
2023/05/06 12:54:24;;;;;;;;;;;;;;;25.74;13.77;97000.28;6298130;28;19920;-75
2023/05/06 12:57:25;;;;;;;;;;;;;;;25.20;13.82;96982.72;6279594;28;20409;-75
2023/05/06 13:00:28;;;;;;;;;;;;;;;24.55;14.46;96978.91;6298030;28;20413;-75
2023/05/06 13:03:35;;;;;;;;;;;;;;;24.34;14.55;96976.06;6297916;28;19920;-74
2023/05/06 13:06:41;;;;;;;;;;;;;;;23.77;15.00;97022.25;6298307;28;19924;-74
2023/05/06 13:09:45;;;;;;;;;;;;;;;23.54;15.21;96963.97;6297989;28;19943;-74
2023/05/06 13:12:48;;;;;;;;;;;;;;;23.60;15.12;96963.25;6297815;28;19952;-74
2023/05/06 13:15:51;;;;;;;;;;;;;;;23.62;15.13;96966.59;6297530;28;19950;-75
2023/05/06 13:18:57;;;;;;;;;;;;;;;23.45;15.42;96971.25;6298153;28;19920;-75
2023/05/06 13:22:00;;;;;;;;;;;;;;;23.27;15.52;96979.59;6297544;28;19924;-74
2023/05/06 13:25:02;;;;;;;;;;;;;;;23.42;15.45;96981.50;6296914;28;19920;-74
2023/05/06 13:28:06;;;;;;;;;;;;;;;23.46;15.29;96967.53;6297757;28;20306;-74
2023/05/06 13:31:10;;;;;;;;;;;;;;;23.34;15.20;96973.50;6297213;28;20404;-76
2023/05/06 13:34:13;;;;;;;;;;;;;;;23.37;15.26;96957.03;6297229;28;20386;-74
2023/05/06 13:37:17;;;;;;;;;;;;;;;23.50;15.17;96962.66;6297062;28;19920;-75
2023/05/06 13:40:22;;;;;;;;;;;;;;;23.49;15.29;96961.78;6297176;28;19920;-73
2023/05/06 13:43:23;;;;;;;;;;;;;;;23.66;15.24;96956.31;6296980;28;20496;-73
2023/05/06 13:46:27;;;;;;;;;;;;;;;23.56;15.47;96964.63;6297131;28;19920;-75
2023/05/06 13:49:28;;;;;;;;;;;;;;;23.43;15.41;96951.78;6296339;28;19959;-74
2023/05/06 13:52:31;;;;;;;;;;;;;;;23.11;15.38;96950.13;6296843;28;19920;-75
2023/05/06 13:55:35;;;;;;;;;;;;;;;23.09;15.55;96954.84;6296843;28;19927;-78
2023/05/06 13:58:36;;;;;;;;;;;;;;;23.06;15.75;96965.94;6295880;28;19920;-74
2023/05/06 14:01:37;;;;;;;;;;;;;;;23.01;16.03;96984.41;6295910;28;20390;-74
2023/05/06 14:04:41;;;;;;;;;;;;;;;22.59;16.28;96961.38;6278043;28;19930;-73
2023/05/06 14:07:46;;;;;;;;;;;;;;;22.75;16.03;96977.44;6296581;28;19920;-73
2023/05/06 14:10:50;;;;;;;;;;;;;;;22.36;16.27;96967.50;6296492;28;19920;-74
2023/05/06 14:13:55;;;;;;;;;;;;;;;22.35;16.38;96976.53;6296074;28;20010;-75
2023/05/06 14:16:59;;;;;;;;;;;;;;;22.35;16.44;96973.03;6296526;28;20378;-74
2023/05/06 14:20:00;;;;;;;;;;;;;;;22.23;16.52;96959.16;6296301;28;20282;-75
2023/05/06 14:23:05;;;;;;;;;;;;;;;22.10;16.55;96974.88;6295778;28;20345;-74
2023/05/06 14:26:08;;;;;;;;;;;;;;;21.81;16.80;96970.03;6296037;28;19924;-74
2023/05/06 14:29:12;;;;;;;;;;;;;;;21.88;16.86;96966.53;6295188;28;19927;-75
2023/05/06 14:32:15;;;;;;;;;;;;;;;21.78;17.22;96960.50;6295395;28;19920;-74
2023/05/06 14:35:16;;;;;;;;;;;;;;;21.61;17.14;96959.66;6295786;28;20015;-74
2023/05/06 14:38:20;;;;;;;;;;;;;;;21.53;17.30;96963.16;6295852;28;20027;-74
2023/05/06 14:41:21;;;;;;;;;;;;;;;21.40;17.43;96961.97;6295608;28;19916;-74
2023/05/06 14:44:24;;;;;;;;;;;;;;;21.21;17.78;96958.56;6295566;28;20027;-75
2023/05/06 14:47:28;;;;;;;;;;;;;;;21.26;17.83;96963.44;6295663;28;19998;-73
2023/05/06 14:50:30;;;;;;;;;;;;;;;21.23;17.68;96950.34;6294616;28;19916;-74
2023/05/06 14:53:31;;;;;;;;;;;;;;;21.13;17.92;96965.72;6277838;28;19920;-75
2023/05/06 14:56:32;;;;;;;;;;;;;;;21.14;17.82;96967.41;6294737;28;19920;-74
2023/05/06 14:59:34;;;;;;;;;;;;;;;21.01;17.98;96960.69;6295558;28;19928;-76
2023/05/06 15:02:41;;;;;;;;;;;;;;;20.82;18.14;96964.47;6277358;28;20298;-75
2023/05/06 15:05:49;;;;;;;;;;;;;;;20.85;18.20;96963.31;6294618;28;19924;-75
2023/05/06 15:08:52;;;;;;;;;;;;;;;20.61;18.38;96962.22;6295167;28;19920;-75
2023/05/06 15:11:56;;;;;;;;;;;;;;;20.59;18.28;96964.19;6295062;28;19920;-74
2023/05/06 15:14:57;;;;;;;;;;;;;;;20.37;18.62;96964.72;6294027;28;19920;-75
2023/05/06 15:18:01;;;;;;;;;;;;;;;20.40;18.91;96959.06;6293871;28;19920;-75
2023/05/06 15:21:05;;;;;;;;;;;;;;;20.33;18.87;96961.53;6295124;28;19921;-75
2023/05/06 15:24:06;;;;;;;;;;;;;;;20.00;19.46;96973.81;6294369;28;19920;-75
2023/05/06 15:27:07;;;;;;;;;;;;;;;19.87;19.47;96973.38;6294297;28;19943;-75
2023/05/06 15:30:10;;;;;;;;;;;;;;;19.68;19.69;96964.56;6295239;28;20321;-74
2023/05/06 15:33:11;;;;;;;;;;;;;;;19.71;19.49;96974.09;6294756;28;19920;-75
2023/05/06 15:36:15;;;;;;;;;;;;;;;19.69;19.45;96971.56;6294943;28;19920;-74
2023/05/06 15:39:16;;;;;;;;;;;;;;;19.55;19.85;96980.09;6294581;28;19931;-74
2023/05/06 15:42:18;;;;;;;;;;;;;;;19.48;20.11;96973.72;6294922;28;19943;-74
2023/05/06 15:45:22;;;;;;;;;;;;;;;19.25;20.24;96976.81;6295004;28;19921;-74
2023/05/06 15:48:28;;;;;;;;;;;;;;;19.12;20.52;96979.00;6294765;28;19920;-75
2023/05/06 15:51:30;;;;;;;;;;;;;;;18.95;20.73;96977.16;6294187;28;20290;-75
2023/05/06 15:54:31;;;;;;;;;;;;;;;19.12;20.68;96981.69;6293760;28;19920;-75
2023/05/06 15:57:32;;;;;;;;;;;;;;;18.96;20.80;96989.47;6259446;28;19920;-74
2023/05/06 16:00:33;;;;;;;;;;;;;;;18.87;21.03;96990.38;6292980;28;19928;-75
2023/05/06 16:03:36;;;;;;;;;;;;;;;18.80;21.26;96980.31;6294698;28;20405;-74